sensor_id;sensor_type;location;lat;lon;timestamp;temperature;humidity
25753;DHT22;13600;50.816;4.416;2022-08-21T00:02:26;19.00;99.90
25753;DHT22;13600;50.816;4.416;2022-08-21T00:04:53;19.00;99.90
25753;DHT22;13600;50.816;4.416;2022-08-21T00:07:20;19.00;99.90
25753;DHT22;13600;50.816;4.416;2022-08-21T00:09:46;19.00;99.90
25753;DHT22;13600;50.816;4.416;2022-08-21T00:12:12;19.00;99.90
25753;DHT22;13600;50.816;4.416;2022-08-21T00:14:38;19.00;99.90
25753;DHT22;13600;50.816;4.416;2022-08-21T00:17:04;19.00;99.90
25753;DHT22;13600;50.816;4.416;2022-08-21T00:19:31;19.00;99.90
25753;DHT22;13600;50.816;4.416;2022-08-21T00:21:56;18.80;99.90
25753;DHT22;13600;50.816;4.416;2022-08-21T00:24:23;18.90;99.90
25753;DHT22;13600;50.816;4.416;2022-08-21T00:26:49;18.80;99.90
25753;DHT22;13600;50.816;4.416;2022-08-21T00:29:15;18.80;99.90
25753;DHT22;13600;50.816;4.416;2022-08-21T00:31:42;18.80;99.90
25753;DHT22;13600;50.816;4.416;2022-08-21T00:34:08;18.70;99.90
25753;DHT22;13600;50.816;4.416;2022-08-21T00:36:35;18.80;99.90
25753;DHT22;13600;50.816;4.416;2022-08-21T00:39:01;18.70;99.90
25753;DHT22;13600;50.816;4.416;2022-08-21T00:41:27;18.70;99.90
25753;DHT22;13600;50.816;4.416;2022-08-21T00:43:54;18.90;99.90
25753;DHT22;13600;50.816;4.416;2022-08-21T00:46:20;18.80;99.90
25753;DHT22;13600;50.816;4.416;2022-08-21T00:48:46;18.70;99.90
25753;DHT22;13600;50.816;4.416;2022-08-21T00:51:24;18.60;99.90
25753;DHT22;13600;50.816;4.416;2022-08-21T00:53:57;18.40;99.90
25753;DHT22;13600;50.816;4.416;2022-08-21T00:56:25;18.20;99.90
25753;DHT22;13600;50.816;4.416;2022-08-21T00:58:52;18.30;99.90
25753;DHT22;13600;50.816;4.416;2022-08-21T01:01:19;18.50;99.90
25753;DHT22;13600;50.816;4.416;2022-08-21T01:03:45;18.40;99.90
25753;DHT22;13600;50.816;4.416;2022-08-21T01:06:12;18.40;99.90
25753;DHT22;13600;50.816;4.416;2022-08-21T01:08:39;18.50;99.90
25753;DHT22;13600;50.816;4.416;2022-08-21T01:11:05;18.60;99.90
25753;DHT22;13600;50.816;4.416;2022-08-21T01:13:36;18.40;99.90
25753;DHT22;13600;50.816;4.416;2022-08-21T01:16:04;18.50;99.90
25753;DHT22;13600;50.816;4.416;2022-08-21T01:18:30;18.40;99.90
25753;DHT22;13600;50.816;4.416;2022-08-21T01:21:09;18.40;99.90
25753;DHT22;13600;50.816;4.416;2022-08-21T01:23:37;18.40;99.90
25753;DHT22;13600;50.816;4.416;2022-08-21T01:26:04;18.40;99.90
25753;DHT22;13600;50.816;4.416;2022-08-21T01:28:35;18.20;99.90
25753;DHT22;13600;50.816;4.416;2022-08-21T01:31:03;18.20;99.90
25753;DHT22;13600;50.816;4.416;2022-08-21T01:33:30;18.10;99.90
25753;DHT22;13600;50.816;4.416;2022-08-21T01:35:56;18.10;99.90
25753;DHT22;13600;50.816;4.416;2022-08-21T01:38:21;18.10;99.90
25753;DHT22;13600;50.816;4.416;2022-08-21T01:40:47;18.00;99.90
25753;DHT22;13600;50.816;4.416;2022-08-21T01:43:13;17.80;99.90
25753;DHT22;13600;50.816;4.416;2022-08-21T01:45:38;17.80;99.90
25753;DHT22;13600;50.816;4.416;2022-08-21T01:48:04;17.90;99.90
25753;DHT22;13600;50.816;4.416;2022-08-21T01:50:30;17.80;99.90
25753;DHT22;13600;50.816;4.416;2022-08-21T01:52:56;17.80;99.90
25753;DHT22;13600;50.816;4.416;2022-08-21T01:55:22;17.80;99.90
25753;DHT22;13600;50.816;4.416;2022-08-21T01:57:48;17.80;99.90
25753;DHT22;13600;50.816;4.416;2022-08-21T02:00:17;17.90;99.90
25753;DHT22;13600;50.816;4.416;2022-08-21T02:02:44;17.90;99.90
25753;DHT22;13600;50.816;4.416;2022-08-21T02:05:10;17.90;99.90
25753;DHT22;13600;50.816;4.416;2022-08-21T02:07:39;17.70;99.90
25753;DHT22;13600;50.816;4.416;2022-08-21T02:10:08;17.70;99.90
25753;DHT22;13600;50.816;4.416;2022-08-21T02:12:34;17.50;99.90
25753;DHT22;13600;50.816;4.416;2022-08-21T02:14:59;17.50;99.90
25753;DHT22;13600;50.816;4.416;2022-08-21T02:17:26;17.50;99.90
25753;DHT22;13600;50.816;4.416;2022-08-21T02:19:52;17.50;99.90
25753;DHT22;13600;50.816;4.416;2022-08-21T02:22:17;17.60;99.90
25753;DHT22;13600;50.816;4.416;2022-08-21T02:24:43;17.80;99.90
25753;DHT22;13600;50.816;4.416;2022-08-21T02:27:09;17.80;99.90
25753;DHT22;13600;50.816;4.416;2022-08-21T02:29:34;17.90;99.90
25753;DHT22;13600;50.816;4.416;2022-08-21T02:32:00;17.70;99.90
25753;DHT22;13600;50.816;4.416;2022-08-21T02:34:26;17.60;99.90
25753;DHT22;13600;50.816;4.416;2022-08-21T02:36:52;17.60;99.90
25753;DHT22;13600;50.816;4.416;2022-08-21T02:39:17;17.60;99.90
25753;DHT22;13600;50.816;4.416;2022-08-21T02:41:43;17.50;99.90
25753;DHT22;13600;50.816;4.416;2022-08-21T02:44:08;17.40;99.90
25753;DHT22;13600;50.816;4.416;2022-08-21T02:46:34;17.40;99.90
25753;DHT22;13600;50.816;4.416;2022-08-21T02:49:00;17.40;99.90
25753;DHT22;13600;50.816;4.416;2022-08-21T02:51:25;17.30;99.90
25753;DHT22;13600;50.816;4.416;2022-08-21T02:53:52;17.10;99.90
25753;DHT22;13600;50.816;4.416;2022-08-21T02:56:20;17.20;99.90
25753;DHT22;13600;50.816;4.416;2022-08-21T02:58:49;17.30;99.90
25753;DHT22;13600;50.816;4.416;2022-08-21T03:01:17;17.50;99.90
25753;DHT22;13600;50.816;4.416;2022-08-21T03:03:44;17.50;99.90
25753;DHT22;13600;50.816;4.416;2022-08-21T03:06:12;17.40;99.90
25753;DHT22;13600;50.816;4.416;2022-08-21T03:08:39;17.30;99.90
25753;DHT22;13600;50.816;4.416;2022-08-21T03:11:05;17.10;99.90
25753;DHT22;13600;50.816;4.416;2022-08-21T03:13:31;17.10;99.90
25753;DHT22;13600;50.816;4.416;2022-08-21T03:15:58;17.00;99.90
25753;DHT22;13600;50.816;4.416;2022-08-21T03:18:24;17.10;99.90
25753;DHT22;13600;50.816;4.416;2022-08-21T03:20:50;17.40;99.90
25753;DHT22;13600;50.816;4.416;2022-08-21T03:23:17;17.30;99.90
25753;DHT22;13600;50.816;4.416;2022-08-21T03:25:44;17.30;99.90
25753;DHT22;13600;50.816;4.416;2022-08-21T03:28:13;17.20;99.90
25753;DHT22;13600;50.816;4.416;2022-08-21T03:30:42;17.10;99.90
25753;DHT22;13600;50.816;4.416;2022-08-21T03:33:08;17.00;99.90
25753;DHT22;13600;50.816;4.416;2022-08-21T03:35:33;17.20;99.90
25753;DHT22;13600;50.816;4.416;2022-08-21T03:37:59;17.20;99.90
25753;DHT22;13600;50.816;4.416;2022-08-21T03:40:25;17.30;99.90
25753;DHT22;13600;50.816;4.416;2022-08-21T03:42:51;17.20;99.90
25753;DHT22;13600;50.816;4.416;2022-08-21T03:45:18;17.10;99.90
25753;DHT22;13600;50.816;4.416;2022-08-21T03:47:58;17.20;99.90
25753;DHT22;13600;50.816;4.416;2022-08-21T03:50:26;17.20;99.90
25753;DHT22;13600;50.816;4.416;2022-08-21T03:52:52;17.10;99.90
25753;DHT22;13600;50.816;4.416;2022-08-21T03:55:18;17.00;99.90
25753;DHT22;13600;50.816;4.416;2022-08-21T03:57:44;17.00;99.90
25753;DHT22;13600;50.816;4.416;2022-08-21T04:00:10;16.80;99.90
25753;DHT22;13600;50.816;4.416;2022-08-21T04:02:38;16.80;99.90
25753;DHT22;13600;50.816;4.416;2022-08-21T04:05:04;16.70;99.90
25753;DHT22;13600;50.816;4.416;2022-08-21T04:07:30;16.80;99.90
25753;DHT22;13600;50.816;4.416;2022-08-21T04:09:55;16.80;99.90
25753;DHT22;13600;50.816;4.416;2022-08-21T04:12:21;16.80;99.90
25753;DHT22;13600;50.816;4.416;2022-08-21T04:14:47;16.90;99.90
25753;DHT22;13600;50.816;4.416;2022-08-21T04:17:12;16.80;99.90
25753;DHT22;13600;50.816;4.416;2022-08-21T04:19:38;16.80;99.90
25753;DHT22;13600;50.816;4.416;2022-08-21T04:22:04;16.80;99.90
25753;DHT22;13600;50.816;4.416;2022-08-21T04:24:29;16.90;99.90
25753;DHT22;13600;50.816;4.416;2022-08-21T04:26:55;17.00;99.90
25753;DHT22;13600;50.816;4.416;2022-08-21T04:29:21;16.90;99.90
25753;DHT22;13600;50.816;4.416;2022-08-21T04:31:47;16.80;99.90
25753;DHT22;13600;50.816;4.416;2022-08-21T04:34:12;16.80;99.90
25753;DHT22;13600;50.816;4.416;2022-08-21T04:36:38;16.70;99.90
25753;DHT22;13600;50.816;4.416;2022-08-21T04:39:04;16.70;99.90
25753;DHT22;13600;50.816;4.416;2022-08-21T04:41:30;16.80;99.90
25753;DHT22;13600;50.816;4.416;2022-08-21T04:43:56;16.80;99.90
25753;DHT22;13600;50.816;4.416;2022-08-21T04:46:23;16.90;99.90
25753;DHT22;13600;50.816;4.416;2022-08-21T04:48:49;16.80;99.90
25753;DHT22;13600;50.816;4.416;2022-08-21T04:51:25;16.80;99.90
25753;DHT22;13600;50.816;4.416;2022-08-21T04:54:05;16.80;99.90
25753;DHT22;13600;50.816;4.416;2022-08-21T04:56:38;16.70;99.90
25753;DHT22;13600;50.816;4.416;2022-08-21T04:59:12;16.80;99.90
25753;DHT22;13600;50.816;4.416;2022-08-21T05:01:39;16.80;99.90
25753;DHT22;13600;50.816;4.416;2022-08-21T05:04:08;17.00;99.90
25753;DHT22;13600;50.816;4.416;2022-08-21T05:06:36;17.10;99.90
25753;DHT22;13600;50.816;4.416;2022-08-21T05:09:03;17.10;99.90
25753;DHT22;13600;50.816;4.416;2022-08-21T05:11:30;17.20;99.90
25753;DHT22;13600;50.816;4.416;2022-08-21T05:13:56;17.10;99.90
25753;DHT22;13600;50.816;4.416;2022-08-21T05:16:21;17.10;99.90
25753;DHT22;13600;50.816;4.416;2022-08-21T05:18:47;17.10;99.90
25753;DHT22;13600;50.816;4.416;2022-08-21T05:21:13;17.20;99.90
25753;DHT22;13600;50.816;4.416;2022-08-21T05:23:40;17.20;99.90
25753;DHT22;13600;50.816;4.416;2022-08-21T05:26:06;17.10;99.90
25753;DHT22;13600;50.816;4.416;2022-08-21T05:28:32;17.10;99.90
25753;DHT22;13600;50.816;4.416;2022-08-21T05:30:58;17.20;99.90
25753;DHT22;13600;50.816;4.416;2022-08-21T05:33:23;17.00;99.90
25753;DHT22;13600;50.816;4.416;2022-08-21T05:35:53;17.00;99.90
25753;DHT22;13600;50.816;4.416;2022-08-21T05:38:22;17.10;99.90
25753;DHT22;13600;50.816;4.416;2022-08-21T05:40:49;17.20;99.90
25753;DHT22;13600;50.816;4.416;2022-08-21T05:43:15;17.20;99.90
25753;DHT22;13600;50.816;4.416;2022-08-21T05:45:41;17.30;99.90
25753;DHT22;13600;50.816;4.416;2022-08-21T05:48:08;17.30;99.90
25753;DHT22;13600;50.816;4.416;2022-08-21T05:50:35;17.20;99.90
25753;DHT22;13600;50.816;4.416;2022-08-21T05:53:01;17.30;99.90
25753;DHT22;13600;50.816;4.416;2022-08-21T05:55:26;17.30;99.90
25753;DHT22;13600;50.816;4.416;2022-08-21T05:57:52;17.30;99.90
25753;DHT22;13600;50.816;4.416;2022-08-21T06:00:18;17.30;99.90
25753;DHT22;13600;50.816;4.416;2022-08-21T06:02:44;17.40;99.90
25753;DHT22;13600;50.816;4.416;2022-08-21T06:05:09;17.50;99.90
25753;DHT22;13600;50.816;4.416;2022-08-21T06:07:36;17.50;99.90
25753;DHT22;13600;50.816;4.416;2022-08-21T06:10:02;17.70;99.90
25753;DHT22;13600;50.816;4.416;2022-08-21T06:12:28;17.60;99.90
25753;DHT22;13600;50.816;4.416;2022-08-21T06:14:54;17.80;99.90
25753;DHT22;13600;50.816;4.416;2022-08-21T06:17:19;17.90;99.90
25753;DHT22;13600;50.816;4.416;2022-08-21T06:19:53;18.00;99.90
25753;DHT22;13600;50.816;4.416;2022-08-21T06:22:19;18.00;99.90
25753;DHT22;13600;50.816;4.416;2022-08-21T06:24:45;18.00;99.90
25753;DHT22;13600;50.816;4.416;2022-08-21T06:27:12;18.10;99.90
25753;DHT22;13600;50.816;4.416;2022-08-21T06:29:37;18.20;99.90
25753;DHT22;13600;50.816;4.416;2022-08-21T06:32:04;18.50;99.90
25753;DHT22;13600;50.816;4.416;2022-08-21T06:34:39;18.60;99.90
25753;DHT22;13600;50.816;4.416;2022-08-21T06:37:04;18.50;99.90
25753;DHT22;13600;50.816;4.416;2022-08-21T06:39:31;18.40;99.90
25753;DHT22;13600;50.816;4.416;2022-08-21T06:41:56;18.50;99.90
25753;DHT22;13600;50.816;4.416;2022-08-21T06:44:22;18.60;99.90
25753;DHT22;13600;50.816;4.416;2022-08-21T06:46:47;18.60;99.90
25753;DHT22;13600;50.816;4.416;2022-08-21T06:49:13;18.60;99.90
25753;DHT22;13600;50.816;4.416;2022-08-21T06:51:39;18.70;99.90
25753;DHT22;13600;50.816;4.416;2022-08-21T06:54:05;18.80;99.90
25753;DHT22;13600;50.816;4.416;2022-08-21T06:56:31;19.00;99.90
25753;DHT22;13600;50.816;4.416;2022-08-21T06:58:58;19.10;99.90
25753;DHT22;13600;50.816;4.416;2022-08-21T07:01:26;19.30;99.90
25753;DHT22;13600;50.816;4.416;2022-08-21T07:03:52;19.60;99.90
25753;DHT22;13600;50.816;4.416;2022-08-21T07:06:18;19.70;99.90
25753;DHT22;13600;50.816;4.416;2022-08-21T07:08:43;21.30;99.90
25753;DHT22;13600;50.816;4.416;2022-08-21T07:11:21;23.80;99.90
25753;DHT22;13600;50.816;4.416;2022-08-21T07:13:50;25.70;99.90
25753;DHT22;13600;50.816;4.416;2022-08-21T07:16:18;27.40;99.90
25753;DHT22;13600;50.816;4.416;2022-08-21T07:18:44;28.50;99.90
25753;DHT22;13600;50.816;4.416;2022-08-21T07:21:09;29.40;99.90
25753;DHT22;13600;50.816;4.416;2022-08-21T07:23:42;29.70;99.30
25753;DHT22;13600;50.816;4.416;2022-08-21T07:26:10;29.90;97.90
25753;DHT22;13600;50.816;4.416;2022-08-21T07:28:35;30.50;96.70
25753;DHT22;13600;50.816;4.416;2022-08-21T07:31:02;31.20;94.30
25753;DHT22;13600;50.816;4.416;2022-08-21T07:33:32;30.60;94.50
25753;DHT22;13600;50.816;4.416;2022-08-21T07:35:58;30.40;95.30
25753;DHT22;13600;50.816;4.416;2022-08-21T07:38:25;29.90;96.40
25753;DHT22;13600;50.816;4.416;2022-08-21T07:40:52;29.40;97.30
25753;DHT22;13600;50.816;4.416;2022-08-21T07:43:19;30.20;96.20
25753;DHT22;13600;50.816;4.416;2022-08-21T07:45:47;31.20;93.90
25753;DHT22;13600;50.816;4.416;2022-08-21T07:48:14;32.50;90.40
25753;DHT22;13600;50.816;4.416;2022-08-21T07:50:39;33.10;88.80
25753;DHT22;13600;50.816;4.416;2022-08-21T07:53:06;33.50;86.00
25753;DHT22;13600;50.816;4.416;2022-08-21T07:55:32;33.50;83.60
25753;DHT22;13600;50.816;4.416;2022-08-21T07:57:58;33.90;82.70
25753;DHT22;13600;50.816;4.416;2022-08-21T08:00:26;34.20;80.90
25753;DHT22;13600;50.816;4.416;2022-08-21T08:02:52;33.40;81.40
25753;DHT22;13600;50.816;4.416;2022-08-21T08:05:22;32.90;82.20
25753;DHT22;13600;50.816;4.416;2022-08-21T08:07:48;32.70;82.70
25753;DHT22;13600;50.816;4.416;2022-08-21T08:10:15;32.00;83.70
25753;DHT22;13600;50.816;4.416;2022-08-21T08:12:42;31.80;84.70
25753;DHT22;13600;50.816;4.416;2022-08-21T08:15:21;31.80;84.30
25753;DHT22;13600;50.816;4.416;2022-08-21T08:17:47;31.70;85.00
25753;DHT22;13600;50.816;4.416;2022-08-21T08:20:14;31.20;86.10
25753;DHT22;13600;50.816;4.416;2022-08-21T08:22:41;30.40;88.10
25753;DHT22;13600;50.816;4.416;2022-08-21T08:25:09;30.30;89.00
25753;DHT22;13600;50.816;4.416;2022-08-21T08:27:35;30.00;90.50
25753;DHT22;13600;50.816;4.416;2022-08-21T08:30:01;29.90;91.00
25753;DHT22;13600;50.816;4.416;2022-08-21T08:32:27;29.40;92.10
25753;DHT22;13600;50.816;4.416;2022-08-21T08:34:52;29.50;92.70
25753;DHT22;13600;50.816;4.416;2022-08-21T08:37:20;29.70;92.20
25753;DHT22;13600;50.816;4.416;2022-08-21T08:39:46;29.60;91.60
25753;DHT22;13600;50.816;4.416;2022-08-21T08:42:28;29.40;93.40
25753;DHT22;13600;50.816;4.416;2022-08-21T08:45:06;28.90;93.60
25753;DHT22;13600;50.816;4.416;2022-08-21T08:47:36;28.80;95.00
25753;DHT22;13600;50.816;4.416;2022-08-21T08:50:45;29.40;93.80
25753;DHT22;13600;50.816;4.416;2022-08-21T08:53:05;31.20;90.30
25753;DHT22;13600;50.816;4.416;2022-08-21T08:55:39;33.10;83.80
25753;DHT22;13600;50.816;4.416;2022-08-21T08:58:06;34.40;80.20
25753;DHT22;13600;50.816;4.416;2022-08-21T09:00:33;35.60;75.60
25753;DHT22;13600;50.816;4.416;2022-08-21T09:03:01;36.50;72.20
25753;DHT22;13600;50.816;4.416;2022-08-21T09:14:16;38.70;63.10
25753;DHT22;13600;50.816;4.416;2022-08-21T09:20:11;40.20;59.00
25753;DHT22;13600;50.816;4.416;2022-08-21T09:25:19;39.90;57.00
25753;DHT22;13600;50.816;4.416;2022-08-21T09:27:46;39.70;57.10
25753;DHT22;13600;50.816;4.416;2022-08-21T09:30:12;39.20;57.80
25753;DHT22;13600;50.816;4.416;2022-08-21T09:32:38;39.80;57.60
25753;DHT22;13600;50.816;4.416;2022-08-21T09:35:16;40.30;55.50
25753;DHT22;13600;50.816;4.416;2022-08-21T09:40:44;40.10;55.40
25753;DHT22;13600;50.816;4.416;2022-08-21T09:43:22;40.20;55.10
25753;DHT22;13600;50.816;4.416;2022-08-21T09:46:19;40.70;54.50
25753;DHT22;13600;50.816;4.416;2022-08-21T09:48:49;41.60;52.90
25753;DHT22;13600;50.816;4.416;2022-08-21T09:51:19;40.80;52.50
25753;DHT22;13600;50.816;4.416;2022-08-21T09:53:48;41.50;52.30
25753;DHT22;13600;50.816;4.416;2022-08-21T09:59:33;39.80;53.90
25753;DHT22;13600;50.816;4.416;2022-08-21T10:02:01;37.40;55.00
25753;DHT22;13600;50.816;4.416;2022-08-21T10:04:31;36.40;57.70
25753;DHT22;13600;50.816;4.416;2022-08-21T10:07:14;36.20;58.30
25753;DHT22;13600;50.816;4.416;2022-08-21T10:09:41;35.50;59.70
25753;DHT22;13600;50.816;4.416;2022-08-21T10:12:19;34.70;59.50
25753;DHT22;13600;50.816;4.416;2022-08-21T10:14:58;33.50;61.30
25753;DHT22;13600;50.816;4.416;2022-08-21T10:22:51;34.30;61.90
25753;DHT22;13600;50.816;4.416;2022-08-21T10:25:41;34.80;60.30
25753;DHT22;13600;50.816;4.416;2022-08-21T10:28:38;35.50;59.30
25753;DHT22;13600;50.816;4.416;2022-08-21T10:31:20;37.00;58.20
25753;DHT22;13600;50.816;4.416;2022-08-21T10:33:59;37.90;57.80
25753;DHT22;13600;50.816;4.416;2022-08-21T10:36:39;37.90;55.70
25753;DHT22;13600;50.816;4.416;2022-08-21T10:47:56;40.80;53.50
25753;DHT22;13600;50.816;4.416;2022-08-21T10:55:44;39.90;52.30
25753;DHT22;13600;50.816;4.416;2022-08-21T10:58:14;38.20;54.30
25753;DHT22;13600;50.816;4.416;2022-08-21T11:00:49;37.80;56.30
25753;DHT22;13600;50.816;4.416;2022-08-21T11:03:34;37.80;55.00
25753;DHT22;13600;50.816;4.416;2022-08-21T11:06:10;36.90;56.30
25753;DHT22;13600;50.816;4.416;2022-08-21T11:08:42;37.20;55.40
25753;DHT22;13600;50.816;4.416;2022-08-21T11:11:15;36.30;57.30
25753;DHT22;13600;50.816;4.416;2022-08-21T11:19:10;39.90;53.90
25753;DHT22;13600;50.816;4.416;2022-08-21T11:21:58;39.50;53.30
25753;DHT22;13600;50.816;4.416;2022-08-21T11:24:34;40.00;53.80
25753;DHT22;13600;50.816;4.416;2022-08-21T11:29:41;42.00;51.20
25753;DHT22;13600;50.816;4.416;2022-08-21T11:35:27;42.60;49.40
25753;DHT22;13600;50.816;4.416;2022-08-21T11:37:58;40.00;49.80
25753;DHT22;13600;50.816;4.416;2022-08-21T11:43:17;35.50;55.90
25753;DHT22;13600;50.816;4.416;2022-08-21T11:46:03;33.90;57.60
25753;DHT22;13600;50.816;4.416;2022-08-21T11:51:08;34.00;59.90
25753;DHT22;13600;50.816;4.416;2022-08-21T11:53:43;35.40;59.30
25753;DHT22;13600;50.816;4.416;2022-08-21T11:56:20;36.60;57.30
25753;DHT22;13600;50.816;4.416;2022-08-21T11:58:58;37.20;55.80
25753;DHT22;13600;50.816;4.416;2022-08-21T12:01:43;37.30;54.70
25753;DHT22;13600;50.816;4.416;2022-08-21T12:04:28;37.20;56.00
25753;DHT22;13600;50.816;4.416;2022-08-21T12:06:56;37.60;54.80
25753;DHT22;13600;50.816;4.416;2022-08-21T12:12:27;38.60;53.80
25753;DHT22;13600;50.816;4.416;2022-08-21T12:15:06;37.60;54.80
25753;DHT22;13600;50.816;4.416;2022-08-21T12:17:38;35.50;55.50
25753;DHT22;13600;50.816;4.416;2022-08-21T12:26:10;39.30;52.60
25753;DHT22;13600;50.816;4.416;2022-08-21T12:28:37;39.70;51.20
25753;DHT22;13600;50.816;4.416;2022-08-21T12:31:04;38.30;52.30
25753;DHT22;13600;50.816;4.416;2022-08-21T12:33:38;37.00;52.20
25753;DHT22;13600;50.816;4.416;2022-08-21T12:36:21;37.90;52.70
25753;DHT22;13600;50.816;4.416;2022-08-21T12:38:59;38.00;51.90
25753;DHT22;13600;50.816;4.416;2022-08-21T12:41:45;39.20;50.90
25753;DHT22;13600;50.816;4.416;2022-08-21T12:44:20;40.10;49.10
25753;DHT22;13600;50.816;4.416;2022-08-21T12:46:59;40.40;48.50
25753;DHT22;13600;50.816;4.416;2022-08-21T12:49:35;39.00;51.60
25753;DHT22;13600;50.816;4.416;2022-08-21T12:52:14;37.70;52.70
25753;DHT22;13600;50.816;4.416;2022-08-21T12:54:43;36.70;54.00
25753;DHT22;13600;50.816;4.416;2022-08-21T12:57:18;35.70;54.80
25753;DHT22;13600;50.816;4.416;2022-08-21T12:59:44;35.00;55.20
25753;DHT22;13600;50.816;4.416;2022-08-21T13:02:35;34.90;55.90
25753;DHT22;13600;50.816;4.416;2022-08-21T13:05:06;35.10;56.20
25753;DHT22;13600;50.816;4.416;2022-08-21T13:07:35;34.90;56.70
25753;DHT22;13600;50.816;4.416;2022-08-21T13:10:28;34.50;56.00
25753;DHT22;13600;50.816;4.416;2022-08-21T13:12:59;35.00;56.60
25753;DHT22;13600;50.816;4.416;2022-08-21T13:15:29;34.30;55.20
25753;DHT22;13600;50.816;4.416;2022-08-21T13:17:56;33.70;56.40
25753;DHT22;13600;50.816;4.416;2022-08-21T13:20:40;33.40;57.90
25753;DHT22;13600;50.816;4.416;2022-08-21T13:23:25;32.90;57.80
25753;DHT22;13600;50.816;4.416;2022-08-21T13:25:52;32.30;59.60
25753;DHT22;13600;50.816;4.416;2022-08-21T13:28:17;31.80;59.20
25753;DHT22;13600;50.816;4.416;2022-08-21T13:30:46;31.50;60.80
25753;DHT22;13600;50.816;4.416;2022-08-21T13:33:14;31.20;61.30
25753;DHT22;13600;50.816;4.416;2022-08-21T13:38:26;30.50;62.60
25753;DHT22;13600;50.816;4.416;2022-08-21T13:40:55;30.20;65.10
25753;DHT22;13600;50.816;4.416;2022-08-21T13:43:26;30.20;66.00
25753;DHT22;13600;50.816;4.416;2022-08-21T13:45:54;30.20;66.70
25753;DHT22;13600;50.816;4.416;2022-08-21T13:48:23;30.30;66.10
25753;DHT22;13600;50.816;4.416;2022-08-21T13:50:51;30.40;65.30
25753;DHT22;13600;50.816;4.416;2022-08-21T13:55:47;30.40;65.60
25753;DHT22;13600;50.816;4.416;2022-08-21T13:58:27;30.40;65.80
25753;DHT22;13600;50.816;4.416;2022-08-21T14:00:54;30.40;66.60
25753;DHT22;13600;50.816;4.416;2022-08-21T14:03:41;30.50;66.80
25753;DHT22;13600;50.816;4.416;2022-08-21T14:06:20;30.50;66.30
25753;DHT22;13600;50.816;4.416;2022-08-21T14:08:53;30.60;64.40
25753;DHT22;13600;50.816;4.416;2022-08-21T14:11:20;30.40;64.60
25753;DHT22;13600;50.816;4.416;2022-08-21T14:13:49;30.00;66.60
25753;DHT22;13600;50.816;4.416;2022-08-21T14:16:28;30.00;67.70
25753;DHT22;13600;50.816;4.416;2022-08-21T14:19:09;29.90;67.50
25753;DHT22;13600;50.816;4.416;2022-08-21T14:21:42;29.80;68.50
25753;DHT22;13600;50.816;4.416;2022-08-21T14:24:28;29.80;69.10
25753;DHT22;13600;50.816;4.416;2022-08-21T14:27:17;29.60;68.30
25753;DHT22;13600;50.816;4.416;2022-08-21T14:29:43;29.40;70.70
25753;DHT22;13600;50.816;4.416;2022-08-21T14:32:20;29.50;69.90
25753;DHT22;13600;50.816;4.416;2022-08-21T14:34:46;29.40;69.60
25753;DHT22;13600;50.816;4.416;2022-08-21T14:37:11;29.50;69.90
25753;DHT22;13600;50.816;4.416;2022-08-21T14:39:38;29.40;70.50
25753;DHT22;13600;50.816;4.416;2022-08-21T14:42:04;29.20;71.30
25753;DHT22;13600;50.816;4.416;2022-08-21T14:44:30;30.40;68.90
25753;DHT22;13600;50.816;4.416;2022-08-21T14:46:58;31.30;66.00
25753;DHT22;13600;50.816;4.416;2022-08-21T14:49:26;31.50;65.90
25753;DHT22;13600;50.816;4.416;2022-08-21T14:51:52;31.30;65.20
25753;DHT22;13600;50.816;4.416;2022-08-21T14:54:29;30.60;66.70
25753;DHT22;13600;50.816;4.416;2022-08-21T14:56:55;30.50;66.90
25753;DHT22;13600;50.816;4.416;2022-08-21T14:59:21;30.40;68.70
25753;DHT22;13600;50.816;4.416;2022-08-21T15:01:48;30.20;69.50
25753;DHT22;13600;50.816;4.416;2022-08-21T15:04:14;30.10;68.60
25753;DHT22;13600;50.816;4.416;2022-08-21T15:06:40;30.10;68.80
25753;DHT22;13600;50.816;4.416;2022-08-21T15:09:06;30.10;68.80
25753;DHT22;13600;50.816;4.416;2022-08-21T15:11:32;30.00;68.40
25753;DHT22;13600;50.816;4.416;2022-08-21T15:14:01;29.60;71.30
25753;DHT22;13600;50.816;4.416;2022-08-21T15:16:28;29.50;70.70
25753;DHT22;13600;50.816;4.416;2022-08-21T15:18:54;29.50;72.60
25753;DHT22;13600;50.816;4.416;2022-08-21T15:21:20;29.30;71.10
25753;DHT22;13600;50.816;4.416;2022-08-21T15:23:45;29.10;73.20
25753;DHT22;13600;50.816;4.416;2022-08-21T15:26:11;29.10;72.70
25753;DHT22;13600;50.816;4.416;2022-08-21T15:28:37;29.00;73.20
25753;DHT22;13600;50.816;4.416;2022-08-21T15:31:04;29.00;74.80
25753;DHT22;13600;50.816;4.416;2022-08-21T15:33:30;28.60;73.60
25753;DHT22;13600;50.816;4.416;2022-08-21T15:35:56;28.60;73.70
25753;DHT22;13600;50.816;4.416;2022-08-21T15:38:22;28.60;74.40
25753;DHT22;13600;50.816;4.416;2022-08-21T15:40:47;28.40;75.20
25753;DHT22;13600;50.816;4.416;2022-08-21T15:43:25;28.50;76.50
25753;DHT22;13600;50.816;4.416;2022-08-21T15:45:51;28.50;75.40
25753;DHT22;13600;50.816;4.416;2022-08-21T15:48:17;28.30;76.10
25753;DHT22;13600;50.816;4.416;2022-08-21T15:50:45;28.40;78.20
25753;DHT22;13600;50.816;4.416;2022-08-21T15:53:11;28.30;78.10
25753;DHT22;13600;50.816;4.416;2022-08-21T15:55:37;28.30;78.20
25753;DHT22;13600;50.816;4.416;2022-08-21T15:58:04;28.30;78.80
25753;DHT22;13600;50.816;4.416;2022-08-21T16:00:32;28.30;77.90
25753;DHT22;13600;50.816;4.416;2022-08-21T16:03:00;28.20;78.30
25753;DHT22;13600;50.816;4.416;2022-08-21T16:05:28;27.90;80.20
25753;DHT22;13600;50.816;4.416;2022-08-21T16:07:53;27.90;80.60
25753;DHT22;13600;50.816;4.416;2022-08-21T16:10:22;28.00;79.10
25753;DHT22;13600;50.816;4.416;2022-08-21T16:12:56;28.00;76.30
25753;DHT22;13600;50.816;4.416;2022-08-21T16:15:22;27.90;78.00
25753;DHT22;13600;50.816;4.416;2022-08-21T16:17:49;27.90;79.00
25753;DHT22;13600;50.816;4.416;2022-08-21T16:20:23;27.80;79.50
25753;DHT22;13600;50.816;4.416;2022-08-21T16:22:50;27.90;77.10
25753;DHT22;13600;50.816;4.416;2022-08-21T16:25:16;27.80;80.40
25753;DHT22;13600;50.816;4.416;2022-08-21T16:27:45;27.80;78.90
25753;DHT22;13600;50.816;4.416;2022-08-21T16:30:12;27.60;80.60
25753;DHT22;13600;50.816;4.416;2022-08-21T16:32:40;27.50;81.00
25753;DHT22;13600;50.816;4.416;2022-08-21T16:35:06;27.60;76.60
25753;DHT22;13600;50.816;4.416;2022-08-21T16:37:32;27.50;79.00
25753;DHT22;13600;50.816;4.416;2022-08-21T16:39:57;27.40;81.10
25753;DHT22;13600;50.816;4.416;2022-08-21T16:42:25;27.10;81.70
25753;DHT22;13600;50.816;4.416;2022-08-21T16:44:52;27.10;80.80
25753;DHT22;13600;50.816;4.416;2022-08-21T16:47:18;27.00;82.60
25753;DHT22;13600;50.816;4.416;2022-08-21T16:49:44;26.90;83.40
25753;DHT22;13600;50.816;4.416;2022-08-21T16:52:11;27.00;82.90
25753;DHT22;13600;50.816;4.416;2022-08-21T16:54:36;26.90;84.90